Time;durP1;ratioP1;P1;durP2;ratioP2;P2;SDS_P1;SDS_P2;PMS_P1;PMS_P2;Temp;Humidity;BMP_temperature;BMP_pressure;BME280_temperature;BME280_humidity;BME280_pressure;Samples;Min_cycle;Max_cycle;Signal;HPM_P1;HPM_P2
2021/01/13 00:02:19;;;;;;;2.45;1.30;;;19.10;38.10;;;;;;4866096;29;20532;-76
2021/01/13 00:04:44;;;;;;;3.40;1.38;;;19.00;38.00;;;;;;4881431;29;20053;-76
2021/01/13 00:07:12;;;;;;;3.35;1.45;;;19.00;38.00;;;;;;4866012;29;20053;-76
2021/01/13 00:09:37;;;;;;;3.25;1.20;;;19.10;38.00;;;;;;4850515;29;20081;-76
2021/01/13 00:12:03;;;;;;;2.58;1.20;;;19.00;37.90;;;;;;4866022;29;20144;-77
2021/01/13 00:14:29;;;;;;;3.15;1.35;;;19.00;38.00;;;;;;4882757;29;20057;-77
2021/01/13 00:16:54;;;;;;;2.47;1.30;;;19.10;38.20;;;;;;4882632;29;20489;-77
2021/01/13 00:19:20;;;;;;;1.73;1.10;;;19.10;38.10;;;;;;4866064;29;20068;-77
2021/01/13 00:21:54;;;;;;;2.22;1.17;;;19.10;38.00;;;;;;4866217;29;20064;-76
2021/01/13 00:24:24;;;;;;;2.40;1.05;;;19.10;38.10;;;;;;4883216;29;20057;-77
2021/01/13 00:26:54;;;;;;;2.08;1.20;;;19.10;38.00;;;;;;4866427;29;20067;-77
2021/01/13 00:29:20;;;;;;;1.77;0.93;;;19.10;37.90;;;;;;4863962;29;20144;-76
2021/01/13 00:31:46;;;;;;;2.35;1.15;;;19.10;38.00;;;;;;4865540;29;20529;-77
2021/01/13 00:34:13;;;;;;;2.97;1.27;;;19.10;38.00;;;;;;4882257;29;20060;-76
2021/01/13 00:36:39;;;;;;;2.67;1.20;;;19.10;38.10;;;;;;4880978;29;20147;-77
2021/01/13 00:39:06;;;;;;;2.63;1.13;;;19.10;38.10;;;;;;4850312;29;20470;-77
2021/01/13 00:41:32;;;;;;;2.92;0.98;;;19.10;38.10;;;;;;4882284;29;20044;-77
2021/01/13 00:43:57;;;;;;;2.85;1.10;;;19.10;38.10;;;;;;4850008;29;20053;-77
2021/01/13 00:46:23;;;;;;;2.95;1.20;;;19.10;38.10;;;;;;4882505;29;20400;-77
2021/01/13 00:48:49;;;;;;;1.27;1.00;;;19.10;38.10;;;;;;4880018;29;20049;-77
2021/01/13 00:51:15;;;;;;;2.47;1.10;;;19.10;38.10;;;;;;4865814;29;20056;-77
2021/01/13 00:53:41;;;;;;;3.10;1.25;;;19.10;38.10;;;;;;4865286;29;20048;-77
2021/01/13 00:56:07;;;;;;;2.20;1.10;;;19.10;38.00;;;;;;4882590;29;20052;-77
2021/01/13 00:58:33;;;;;;;1.83;1.10;;;19.10;38.10;;;;;;4881988;29;20065;-77
2021/01/13 01:00:58;;;;;;;2.28;1.05;;;19.10;38.10;;;;;;4865173;29;20049;-77
2021/01/13 01:03:24;;;;;;;3.03;1.48;;;19.10;38.10;;;;;;4865408;29;20557;-77
2021/01/13 01:05:50;;;;;;;1.98;1.10;;;19.10;38.10;;;;;;4865491;29;20057;-77
2021/01/13 01:08:17;;;;;;;1.90;1.10;;;19.10;38.10;;;;;;4881725;29;20057;-77
2021/01/13 01:10:49;;;;;;;2.35;1.20;;;19.10;38.10;;;;;;4881725;29;20057;-77
2021/01/13 01:13:15;;;;;;;2.92;1.40;;;19.10;38.10;;;;;;4880490;29;20137;-77
2021/01/13 01:15:41;;;;;;;1.45;0.80;;;19.10;38.10;;;;;;4881797;29;20186;-77
2021/01/13 01:18:07;;;;;;;2.42;1.38;;;19.10;38.60;;;;;;4881820;29;20049;-77
2021/01/13 01:20:32;;;;;;;2.38;1.15;;;19.10;38.10;;;;;;4881395;29;20049;-77
2021/01/13 01:23:00;;;;;;;1.95;1.20;;;19.10;38.00;;;;;;4849860;29;20057;-77
2021/01/13 01:25:28;;;;;;;1.42;0.90;;;19.10;38.00;;;;;;4849261;29;20408;-77
2021/01/13 01:27:56;;;;;;;1.70;1.00;;;19.10;38.10;;;;;;4879995;29;20118;-77
2021/01/13 01:30:23;;;;;;;2.05;1.17;;;19.10;38.00;;;;;;4864797;29;20088;-77
2021/01/13 01:32:49;;;;;;;2.03;1.00;;;19.10;38.10;;;;;;4879914;29;20053;-77
2021/01/13 01:35:15;;;;;;;2.92;1.30;;;19.10;38.10;;;;;;4881582;29;20055;-77
2021/01/13 01:37:41;;;;;;;1.83;1.00;;;19.10;37.90;;;;;;4880115;29;20506;-77
2021/01/13 01:40:10;;;;;;;2.88;1.17;;;19.00;38.00;;;;;;4864951;29;20076;-77
2021/01/13 01:42:36;;;;;;;2.05;0.90;;;19.00;38.00;;;;;;4865565;29;20061;-77
2021/01/13 01:45:03;;;;;;;2.25;1.00;;;19.00;38.00;;;;;;4882153;29;20168;-77
2021/01/13 01:48:04;;;;;;;2.10;1.20;;;19.00;38.10;;;;;;4864354;29;20521;-76
2021/01/13 01:50:37;;;;;;;2.83;1.40;;;19.00;37.90;;;;;;4875224;29;20521;-77
2021/01/13 01:53:31;;;;;;;2.15;1.02;;;19.10;38.20;;;;;;4830508;29;20410;-77
2021/01/13 01:56:24;;;;;;;2.20;1.02;;;19.10;38.00;;;;;;4845660;29;20092;-77
2021/01/13 01:58:59;;;;;;;1.33;0.90;;;19.00;38.00;;;;;;4848450;29;20080;-77
2021/01/13 02:01:36;;;;;;;1.38;0.90;;;19.00;38.00;;;;;;4862137;29;20049;-77
2021/01/13 02:04:06;;;;;;;1.08;0.90;;;19.10;38.20;;;;;;4862203;29;20053;-77
2021/01/13 02:06:33;;;;;;;2.10;1.13;;;19.10;38.20;;;;;;4845822;29;20058;-77
2021/01/13 02:08:59;;;;;;;0.95;0.80;;;19.00;38.00;;;;;;4861954;29;20053;-77
2021/01/13 02:11:27;;;;;;;2.40;1.10;;;19.10;38.20;;;;;;4845476;29;20121;-77
2021/01/13 02:13:53;;;;;;;1.25;0.90;;;19.10;38.10;;;;;;4862379;29;20057;-77
2021/01/13 02:16:20;;;;;;;1.65;1.20;;;19.10;38.10;;;;;;4860597;29;20161;-77
2021/01/13 02:18:47;;;;;;;2.03;0.93;;;19.10;38.00;;;;;;4845222;29;20061;-77
2021/01/13 02:21:19;;;;;;;1.33;0.77;;;19.10;38.10;;;;;;4845212;29;20517;-76
2021/01/13 02:24:17;;;;;;;1.88;0.80;;;19.10;38.20;;;;;;4862186;29;20085;-76
2021/01/13 02:27:21;;;;;;;2.47;1.13;;;19.10;38.20;;;;;;4861708;29;20181;-76
2021/01/13 02:29:58;;;;;;;2.20;1.20;;;19.10;38.10;;;;;;4844926;29;20093;-76
2021/01/13 02:32:29;;;;;;;2.08;0.90;;;19.10;38.10;;;;;;4845213;29;20490;-76
2021/01/13 02:35:01;;;;;;;1.23;0.82;;;19.10;38.10;;;;;;4847182;29;20049;-77
2021/01/13 02:37:44;;;;;;;1.45;1.05;;;19.10;38.10;;;;;;4862752;29;20143;-77
2021/01/13 02:40:12;;;;;;;1.40;0.82;;;19.10;38.10;;;;;;4879057;29;20442;-77
2021/01/13 02:42:46;;;;;;;2.10;1.10;;;19.10;38.10;;;;;;4850732;29;20067;-77
2021/01/13 02:45:17;;;;;;;1.63;1.00;;;19.10;38.20;;;;;;4844930;29;20062;-77
2021/01/13 02:47:57;;;;;;;3.25;1.23;;;19.10;38.10;;;;;;4860741;29;20062;-77
2021/01/13 02:50:27;;;;;;;2.08;1.08;;;19.10;38.10;;;;;;4845181;29;20061;-77
2021/01/13 02:53:22;;;;;;;1.10;1.00;;;19.10;38.10;;;;;;4846608;29;20064;-77
2021/01/13 02:55:48;;;;;;;2.20;0.93;;;19.10;38.10;;;;;;4832736;29;20084;-77
2021/01/13 02:58:26;;;;;;;2.05;1.00;;;19.10;38.10;;;;;;4848484;29;20494;-77
2021/01/13 03:00:52;;;;;;;1.35;0.90;;;19.10;38.10;;;;;;4845210;29;20072;-77
2021/01/13 03:03:18;;;;;;;2.65;1.08;;;19.10;38.10;;;;;;4846362;29;20053;-77
2021/01/13 03:05:47;;;;;;;1.08;0.77;;;19.10;38.10;;;;;;4861181;29;20119;-77
2021/01/13 03:08:14;;;;;;;0.95;0.77;;;19.10;38.00;;;;;;4845877;29;20450;-77
2021/01/13 03:10:42;;;;;;;1.08;0.80;;;19.10;38.10;;;;;;4844883;29;20508;-77
2021/01/13 03:13:08;;;;;;;2.45;1.27;;;19.10;38.10;;;;;;4845766;29;20065;-77
2021/01/13 03:15:35;;;;;;;1.73;0.75;;;19.10;38.10;;;;;;4861536;29;20045;-77
2021/01/13 03:18:05;;;;;;;1.40;0.77;;;19.20;38.10;;;;;;4846226;29;20049;-77
2021/01/13 03:20:57;;;;;;;1.88;0.82;;;19.20;38.10;;;;;;4875045;29;20455;-77
2021/01/13 03:23:23;;;;;;;1.55;0.95;;;19.20;38.00;;;;;;4861941;29;20498;-77
2021/01/13 03:26:03;;;;;;;1.80;0.93;;;19.20;38.00;;;;;;4859825;29;20084;-77
2021/01/13 03:28:35;;;;;;;1.27;0.60;;;19.30;38.00;;;;;;4860975;29;20064;-77
2021/01/13 03:31:01;;;;;;;0.90;0.77;;;19.20;38.00;;;;;;4844575;29;20645;-77
2021/01/13 03:34:01;;;;;;;1.50;0.90;;;19.30;38.00;;;;;;4844187;29;20058;-77
2021/01/13 03:36:52;;;;;;;0.82;0.80;;;19.30;38.00;;;;;;4844808;29;20421;-77
2021/01/13 03:39:21;;;;;;;2.15;0.90;;;19.30;37.90;;;;;;4845990;29;20053;-77
2021/01/13 03:41:56;;;;;;;0.95;0.75;;;19.30;37.90;;;;;;4857865;29;20500;-77
2021/01/13 03:44:25;;;;;;;1.02;0.70;;;19.30;37.90;;;;;;4879393;29;20140;-77
2021/01/13 03:46:52;;;;;;;1.88;0.80;;;19.30;38.00;;;;;;4879771;29;20139;-77
2021/01/13 03:49:23;;;;;;;1.00;0.93;;;19.30;37.90;;;;;;4834574;29;20064;-77
2021/01/13 03:52:04;;;;;;;2.22;1.00;;;19.30;37.90;;;;;;4844175;29;20054;-77
2021/01/13 03:54:34;;;;;;;0.98;0.80;;;19.30;37.90;;;;;;4829303;29;20057;-77
2021/01/13 03:57:05;;;;;;;1.98;0.85;;;19.30;37.90;;;;;;4859836;29;20493;-77
2021/01/13 03:59:41;;;;;;;1.92;1.00;;;19.30;37.90;;;;;;4861107;29;20114;-77
2021/01/13 04:02:08;;;;;;;1.88;1.00;;;19.30;37.90;;;;;;4859560;29;20106;-77
2021/01/13 04:04:46;;;;;;;3.22;1.00;;;19.30;37.90;;;;;;4860640;29;20053;-77
2021/01/13 04:07:14;;;;;;;0.68;0.68;;;19.30;37.90;;;;;;4859724;29;20100;-77
2021/01/13 04:09:40;;;;;;;2.08;0.88;;;19.30;37.90;;;;;;4844286;29;20053;-76
2021/01/13 04:12:16;;;;;;;2.85;1.00;;;19.30;37.90;;;;;;4859405;29;20061;-77
2021/01/13 04:14:54;;;;;;;1.73;1.02;;;19.30;37.90;;;;;;4874389;29;20101;-77
2021/01/13 04:17:20;;;;;;;1.90;1.05;;;19.30;37.90;;;;;;4860577;29;20054;-77
2021/01/13 04:19:47;;;;;;;1.63;1.02;;;19.30;38.00;;;;;;4862754;29;20065;-77
2021/01/13 04:22:14;;;;;;;1.15;0.70;;;19.30;38.00;;;;;;4859577;29;20065;-77
2021/01/13 04:24:42;;;;;;;1.52;0.85;;;19.30;37.90;;;;;;4860334;29;20409;-77
2021/01/13 04:27:10;;;;;;;1.13;0.88;;;19.30;37.90;;;;;;4850294;29;20049;-77
2021/01/13 04:29:36;;;;;;;1.42;1.02;;;19.30;37.90;;;;;;4865759;29;20560;-77
2021/01/13 04:32:02;;;;;;;2.28;1.10;;;19.30;38.00;;;;;;4865796;29;20048;-77
2021/01/13 04:34:28;;;;;;;1.00;0.85;;;19.30;38.00;;;;;;4867242;29;20152;-77
2021/01/13 04:36:56;;;;;;;1.38;0.98;;;19.20;38.00;;;;;;4863906;29;20285;-77
2021/01/13 04:39:24;;;;;;;2.08;1.20;;;19.30;38.00;;;;;;4863683;29;20494;-77
2021/01/13 04:42:07;;;;;;;1.25;0.98;;;19.30;38.00;;;;;;4847359;29;20072;-77
2021/01/13 04:45:03;;;;;;;2.72;1.30;;;19.20;38.00;;;;;;4862387;29;20066;-77
2021/01/13 04:47:48;;;;;;;2.10;0.90;;;19.20;38.00;;;;;;4812959;29;20523;-77
2021/01/13 04:50:17;;;;;;;1.85;0.95;;;19.20;38.10;;;;;;4862348;29;20057;-77
2021/01/13 04:52:43;;;;;;;2.22;1.05;;;19.20;38.00;;;;;;4863742;29;20068;-77
2021/01/13 04:55:24;;;;;;;1.65;0.77;;;19.20;38.00;;;;;;4863565;29;20053;-77
2021/01/13 04:58:24;;;;;;;1.63;0.98;;;19.20;38.00;;;;;;4846872;29;20064;-77
2021/01/13 05:01:34;;;;;;;2.55;1.10;;;19.20;38.00;;;;;;4863598;29;20053;-76
2021/01/13 05:04:01;;;;;;;2.20;0.95;;;19.20;38.10;;;;;;4863364;29;20053;-76
2021/01/13 05:06:54;;;;;;;2.03;0.93;;;19.20;38.10;;;;;;4863268;29;20110;-76
2021/01/13 05:09:19;;;;;;;1.10;0.75;;;19.20;38.10;;;;;;4846901;29;20064;-76
2021/01/13 05:11:47;;;;;;;1.98;0.93;;;19.20;38.10;;;;;;4846554;29;20049;-76
2021/01/13 05:14:18;;;;;;;0.80;0.80;;;19.20;38.00;;;;;;4846378;29;20063;-76
2021/01/13 05:16:50;;;;;;;0.88;0.80;;;19.20;38.10;;;;;;4855219;29;20092;-76
2021/01/13 05:20:04;;;;;;;1.35;0.90;;;19.20;38.10;;;;;;4863069;29;20063;-77
2021/01/13 05:22:33;;;;;;;1.95;0.80;;;19.20;38.10;;;;;;4846538;29;20046;-76
2021/01/13 05:25:02;;;;;;;0.75;0.60;;;19.20;38.00;;;;;;4862858;29;20057;-76
2021/01/13 05:27:46;;;;;;;0.68;0.60;;;19.20;38.00;;;;;;4848159;29;20057;-76
2021/01/13 05:30:13;;;;;;;1.45;0.90;;;19.20;38.00;;;;;;4861327;29;20416;-77
2021/01/13 05:32:42;;;;;;;1.00;0.73;;;19.20;38.00;;;;;;4862756;29;20498;-76
2021/01/13 05:35:09;;;;;;;3.92;0.90;;;19.20;38.00;;;;;;4845557;29;20061;-76
2021/01/13 05:38:02;;;;;;;2.65;0.82;;;19.30;38.10;;;;;;4864283;29;20049;-76
2021/01/13 05:40:29;;;;;;;1.15;0.70;;;19.20;38.00;;;;;;4862386;29;20054;-76
2021/01/13 05:42:56;;;;;;;3.38;1.20;;;19.30;38.00;;;;;;4862990;29;20053;-76
2021/01/13 05:45:24;;;;;;;1.55;0.90;;;19.20;38.00;;;;;;4864202;29;20081;-76
2021/01/13 05:47:55;;;;;;;1.88;0.93;;;19.30;38.00;;;;;;4879174;29;20060;-76
2021/01/13 05:50:24;;;;;;;1.88;0.93;;;19.30;38.00;;;;;;4849125;29;20076;-77
2021/01/13 05:52:52;;;;;;;0.73;0.70;;;19.30;38.00;;;;;;4866857;29;20058;-76
2021/01/13 05:55:19;;;;;;;2.05;0.80;;;19.30;37.90;;;;;;4883226;29;20139;-77
2021/01/13 05:57:56;;;;;;;2.10;0.80;;;19.30;38.00;;;;;;4835602;29;20085;-76
2021/01/13 06:00:23;;;;;;;1.05;0.68;;;19.30;38.00;;;;;;4861852;29;20115;-77
2021/01/13 06:02:54;;;;;;;1.90;0.77;;;19.30;38.00;;;;;;4861158;29;20061;-77
2021/01/13 06:05:20;;;;;;;1.13;0.75;;;19.30;38.00;;;;;;4862573;29;20057;-77
2021/01/13 06:07:51;;;;;;;1.15;0.82;;;19.30;37.90;;;;;;4830248;29;20053;-77
2021/01/13 06:10:25;;;;;;;1.77;0.90;;;19.30;37.90;;;;;;4845446;29;20057;-77
2021/01/13 06:12:55;;;;;;;1.40;0.90;;;19.30;37.90;;;;;;4860992;29;20502;-77
2021/01/13 06:15:24;;;;;;;2.20;0.90;;;19.30;37.90;;;;;;4845503;29;20053;-77
2021/01/13 06:17:52;;;;;;;2.60;0.82;;;19.30;38.00;;;;;;4861672;29;20073;-77
2021/01/13 06:20:26;;;;;;;1.45;0.90;;;19.30;37.90;;;;;;4863738;29;20060;-77
2021/01/13 06:22:53;;;;;;;3.65;1.13;;;19.30;37.90;;;;;;4862524;29;20057;-77
2021/01/13 06:25:27;;;;;;;1.65;1.02;;;19.30;38.00;;;;;;4880305;29;20409;-77
2021/01/13 06:28:25;;;;;;;1.65;0.82;;;19.30;37.90;;;;;;4862237;29;20152;-77
2021/01/13 06:31:02;;;;;;;1.88;0.90;;;19.30;38.00;;;;;;4860558;29;20057;-77
2021/01/13 06:33:51;;;;;;;0.95;0.73;;;19.30;38.00;;;;;;4860568;29;20057;-77
2021/01/13 06:36:30;;;;;;;1.00;0.73;;;19.30;38.00;;;;;;4861879;29;20453;-77
2021/01/13 06:38:58;;;;;;;0.93;0.70;;;19.30;38.00;;;;;;4844746;29;20152;-76
2021/01/13 06:41:25;;;;;;;2.30;0.90;;;19.30;38.00;;;;;;4844901;29;20059;-77
2021/01/13 06:44:03;;;;;;;1.10;0.70;;;19.30;38.00;;;;;;4844919;29;20053;-77
2021/01/13 06:46:29;;;;;;;2.58;0.90;;;19.30;38.00;;;;;;4844056;29;20061;-77
2021/01/13 06:49:11;;;;;;;2.10;1.10;;;19.30;38.00;;;;;;4844549;29;20077;-77
2021/01/13 06:51:40;;;;;;;1.55;0.80;;;19.30;38.00;;;;;;4844760;29;20409;-77
2021/01/13 06:54:07;;;;;;;2.10;0.90;;;19.30;38.00;;;;;;4878228;29;20056;-77
2021/01/13 06:56:37;;;;;;;1.52;0.70;;;19.30;38.00;;;;;;4879591;29;20088;-76
2021/01/13 06:59:02;;;;;;;1.08;0.90;;;19.30;38.00;;;;;;4879600;29;20105;-77
2021/01/13 07:01:29;;;;;;;2.25;0.90;;;19.20;38.00;;;;;;4862974;29;20450;-77
2021/01/13 07:04:05;;;;;;;1.70;0.90;;;19.20;38.00;;;;;;4878450;29;20061;-77
2021/01/13 07:06:31;;;;;;;2.25;0.80;;;19.30;38.00;;;;;;4880264;29;20386;-77
2021/01/13 07:08:58;;;;;;;0.98;0.70;;;19.30;38.00;;;;;;4862966;29;20493;-77
2021/01/13 07:11:25;;;;;;;1.63;0.93;;;19.30;38.00;;;;;;4879626;29;20136;-77
2021/01/13 07:13:53;;;;;;;1.50;1.00;;;19.30;38.00;;;;;;4862795;29;20061;-77
2021/01/13 07:16:30;;;;;;;1.38;1.08;;;19.30;38.00;;;;;;4862795;29;20512;-77
2021/01/13 07:19:02;;;;;;;2.65;0.80;;;19.30;38.00;;;;;;4847856;29;20393;-77
2021/01/13 07:21:39;;;;;;;2.38;0.82;;;19.20;38.00;;;;;;4862945;29;20057;-77
2021/01/13 07:24:13;;;;;;;2.53;0.77;;;19.30;37.90;;;;;;4862833;29;20068;-77
2021/01/13 07:26:44;;;;;;;1.88;0.82;;;19.30;38.00;;;;;;4860974;29;20415;-77
2021/01/13 07:29:10;;;;;;;1.50;0.98;;;19.30;38.10;;;;;;4860874;29;20053;-78
2021/01/13 07:31:36;;;;;;;1.02;0.80;;;19.30;39.10;;;;;;4829549;29;20092;-76
2021/01/13 07:34:10;;;;;;;2.50;1.45;;;19.30;38.80;;;;;;4859523;29;20512;-77
2021/01/13 07:36:38;;;;;;;2.17;1.05;;;19.30;41.10;;;;;;4860724;29;20691;-76
2021/01/13 07:39:06;;;;;;;5.20;1.20;;;19.30;39.20;;;;;;4876805;29;20061;-76
2021/01/13 07:42:00;;;;;;;5.03;1.50;;;19.40;45.20;;;;;;4848173;29;20057;-76
2021/01/13 07:44:40;;;;;;;4.65;1.42;;;19.40;44.20;;;;;;4847139;29;20091;-76
2021/01/13 07:47:27;;;;;;;12.68;2.30;;;19.40;43.60;;;;;;4862764;29;20053;-76
2021/01/13 07:50:10;;;;;;;10.45;2.47;;;19.50;43.90;;;;;;4859239;29;20421;-76
2021/01/13 07:52:47;;;;;;;9.93;2.42;;;19.50;44.70;;;;;;4844380;29;20062;-76
2021/01/13 07:55:16;;;;;;;8.43;1.90;;;19.50;43.20;;;;;;4859501;29;20057;-76
2021/01/13 07:57:55;;;;;;;6.55;1.40;;;19.50;43.50;;;;;;4844170;29;20064;-76
2021/01/13 08:00:24;;;;;;;9.23;1.95;;;19.60;42.20;;;;;;4864473;29;20077;-76
2021/01/13 08:03:28;;;;;;;15.98;2.30;;;19.70;43.10;;;;;;4847639;29;20060;-76
2021/01/13 08:06:35;;;;;;;11.73;2.30;;;19.80;46.30;;;;;;4863388;29;20478;-76
2021/01/13 08:09:18;;;;;;;9.65;2.03;;;19.90;44.90;;;;;;4847111;29;20117;-76
2021/01/13 08:12:33;;;;;;;11.05;1.90;;;20.00;44.90;;;;;;4878245;29;20061;-75
2021/01/13 08:15:42;;;;;;;12.32;2.03;;;20.10;44.30;;;;;;4838003;29;20071;-75
2021/01/13 08:18:55;;;;;;;6.95;1.83;;;20.10;44.40;;;;;;4882954;29;20133;-78
2021/01/13 08:21:33;;;;;;;7.30;1.90;;;20.20;45.70;;;;;;4865689;29;20152;-78
2021/01/13 08:27:03;;;;;;;6.50;1.63;;;20.30;45.80;;;;;;4882255;29;20064;-76
2021/01/13 08:29:52;;;;;;;15.43;1.90;;;20.30;46.10;;;;;;4864092;29;20057;-78
2021/01/13 08:32:25;;;;;;;8.23;2.00;;;20.40;46.10;;;;;;4881063;29;20088;-76
2021/01/13 08:38:18;;;;;;;8.55;2.13;;;20.50;46.20;;;;;;4876614;29;20057;-80
2021/01/13 08:40:44;;;;;;;11.25;2.47;;;20.50;46.00;;;;;;4862453;29;20081;-78
2021/01/13 08:43:15;;;;;;;7.05;2.13;;;20.50;46.00;;;;;;4880405;29;20094;-78
2021/01/13 08:45:42;;;;;;;4.63;1.75;;;20.50;46.00;;;;;;4864397;29;20049;-78
2021/01/13 08:48:13;;;;;;;8.85;2.35;;;20.50;46.10;;;;;;4848412;29;20443;-77
2021/01/13 08:50:44;;;;;;;8.50;1.80;;;20.50;45.80;;;;;;4846851;29;20073;-77
2021/01/13 08:53:37;;;;;;;11.18;2.25;;;20.50;45.90;;;;;;4848687;29;20132;-77
2021/01/13 08:56:23;;;;;;;8.10;1.90;;;20.50;45.80;;;;;;4846477;29;20063;-78
2021/01/13 08:58:55;;;;;;;9.35;2.45;;;20.50;45.90;;;;;;4863282;29;20108;-77
2021/01/13 09:01:40;;;;;;;9.93;2.15;;;20.50;45.60;;;;;;4864945;29;20056;-78
2021/01/13 09:04:47;;;;;;;6.15;1.75;;;20.60;45.60;;;;;;4842026;29;20077;-78
2021/01/13 09:07:21;;;;;;;9.00;1.75;;;20.60;45.60;;;;;;4826466;29;20077;-78
2021/01/13 09:10:04;;;;;;;4.63;1.50;;;20.60;45.70;;;;;;4841540;29;20165;-77
2021/01/13 09:12:41;;;;;;;6.53;1.48;;;20.60;45.50;;;;;;4842480;29;20578;-77
2021/01/13 09:15:06;;;;;;;9.50;1.80;;;20.60;45.20;;;;;;4827427;29;20050;-78
2021/01/13 09:17:47;;;;;;;7.70;2.22;;;20.60;45.00;;;;;;4838106;29;20073;-78
2021/01/13 09:20:13;;;;;;;5.35;1.83;;;20.60;44.90;;;;;;4811815;29;20133;-78
2021/01/13 09:23:07;;;;;;;6.28;1.63;;;20.60;44.80;;;;;;4826988;29;20062;-77
2021/01/13 09:25:56;;;;;;;7.32;1.92;;;20.50;44.60;;;;;;4841962;29;20070;-77
2021/01/13 09:28:22;;;;;;;5.32;1.70;;;20.60;44.50;;;;;;4838344;29;20505;-77
2021/01/13 09:30:48;;;;;;;8.77;1.83;;;20.50;44.40;;;;;;4861545;29;20057;-78
2021/01/13 09:33:19;;;;;;;8.43;2.05;;;20.50;44.30;;;;;;4861404;29;20144;-77
2021/01/13 09:35:47;;;;;;;7.80;1.77;;;20.50;44.20;;;;;;4848198;29;20065;-77
2021/01/13 09:38:12;;;;;;;6.28;2.40;;;20.50;44.20;;;;;;4846172;29;20060;-78
2021/01/13 09:41:01;;;;;;;5.05;1.80;;;20.50;44.10;;;;;;4861126;29;20053;-77
2021/01/13 09:43:34;;;;;;;6.78;1.83;;;20.50;43.90;;;;;;4830644;29;20113;-77
2021/01/13 09:46:03;;;;;;;6.65;2.20;;;20.50;43.80;;;;;;4846170;29;20088;-78
2021/01/13 09:48:35;;;;;;;8.30;1.67;;;20.50;43.80;;;;;;4845578;29;20053;-78
2021/01/13 09:51:10;;;;;;;7.78;1.95;;;20.50;43.80;;;;;;4845760;29;20057;-77
2021/01/13 09:53:48;;;;;;;4.60;1.70;;;20.50;43.70;;;;;;4845726;29;20468;-78
2021/01/13 09:56:16;;;;;;;3.78;1.58;;;20.60;43.60;;;;;;4879040;29;20064;-78
2021/01/13 09:58:47;;;;;;;5.22;1.48;;;20.50;43.60;;;;;;4846375;29;20062;-78
2021/01/13 10:01:18;;;;;;;5.53;1.70;;;20.50;43.40;;;;;;4861910;29;20064;-78
2021/01/13 10:04:05;;;;;;;6.55;1.73;;;20.50;43.40;;;;;;4830427;29;20065;-78
2021/01/13 10:06:46;;;;;;;8.48;1.50;;;20.50;43.40;;;;;;4864237;29;20060;-77
2021/01/13 10:09:16;;;;;;;7.50;1.75;;;20.50;43.40;;;;;;4863541;29;20408;-77
2021/01/13 10:12:04;;;;;;;6.93;1.92;;;20.50;43.30;;;;;;4847110;29;20065;-77
2021/01/13 10:14:31;;;;;;;6.78;1.40;;;20.50;43.30;;;;;;4845778;29;20418;-77
2021/01/13 10:16:58;;;;;;;6.28;1.90;;;20.50;43.30;;;;;;4845459;29;20526;-78
2021/01/13 10:19:27;;;;;;;5.75;1.50;;;20.50;43.10;;;;;;4845212;29;20053;-78
2021/01/13 10:21:57;;;;;;;6.45;1.85;;;20.50;43.20;;;;;;4862236;29;20057;-77
2021/01/13 10:24:32;;;;;;;7.43;1.75;;;20.50;43.10;;;;;;4830123;29;20110;-77
2021/01/13 10:27:02;;;;;;;6.63;2.08;;;20.50;43.20;;;;;;4845249;29;20086;-77
2021/01/13 10:29:31;;;;;;;6.47;1.58;;;20.50;43.10;;;;;;4847207;29;20084;-77
2021/01/13 10:32:16;;;;;;;6.70;1.58;;;20.50;43.00;;;;;;4863173;29;20156;-77
2021/01/13 10:34:50;;;;;;;5.05;1.67;;;20.40;42.90;;;;;;4880500;29;20508;-77
2021/01/13 10:37:19;;;;;;;8.45;1.92;;;20.40;43.00;;;;;;4880196;29;20084;-78
2021/01/13 10:40:20;;;;;;;5.43;1.58;;;20.40;43.00;;;;;;4831872;29;20096;-77
2021/01/13 10:43:08;;;;;;;;;;;20.40;43.00;;;;;;4862011;29;20062;-77
2021/01/13 10:45:42;;;;;;;6.13;1.75;;;20.40;42.90;;;;;;4860083;29;19959;-78
2021/01/13 10:51:19;;;;;;;6.18;1.63;;;20.40;42.90;;;;;;4845875;29;20061;-78
2021/01/13 10:53:58;;;;;;;8.38;2.22;;;20.30;42.70;;;;;;4844780;29;20068;-78
2021/01/13 10:56:30;;;;;;;6.38;1.40;;;20.30;42.80;;;;;;4861607;29;20111;-79
2021/01/13 10:59:02;;;;;;;4.65;1.60;;;20.30;42.60;;;;;;4867292;29;20053;-77
2021/01/13 11:01:33;;;;;;;7.95;1.88;;;20.30;42.60;;;;;;4859025;29;20058;-78
2021/01/13 11:03:59;;;;;;;3.90;1.83;;;20.30;42.60;;;;;;4846886;29;20447;-78
2021/01/13 11:06:25;;;;;;;5.78;2.00;;;20.40;42.60;;;;;;4862827;29;20289;-78
2021/01/13 11:08:53;;;;;;;4.35;1.55;;;20.30;42.40;;;;;;4863342;29;20064;-78
2021/01/13 11:11:20;;;;;;;3.90;1.85;;;20.40;42.40;;;;;;4861503;29;20080;-78
2021/01/13 11:13:49;;;;;;;5.07;1.52;;;20.40;42.20;;;;;;4844506;29;20061;-78
2021/01/13 11:16:15;;;;;;;7.13;1.40;;;20.40;42.20;;;;;;4844411;29;20473;-78
2021/01/13 11:18:42;;;;;;;4.03;1.83;;;20.40;42.20;;;;;;4861211;29;20102;-78
2021/01/13 11:21:08;;;;;;;3.55;1.52;;;20.40;42.20;;;;;;4861000;29;20501;-78
2021/01/13 11:23:42;;;;;;;6.93;1.40;;;20.40;42.20;;;;;;4859657;29;20076;-78
2021/01/13 11:26:08;;;;;;;5.22;1.85;;;20.40;42.10;;;;;;4829049;29;20061;-78
2021/01/13 11:28:35;;;;;;;5.82;1.60;;;20.40;42.00;;;;;;4861053;29;20506;-78
2021/01/13 11:31:04;;;;;;;4.82;1.70;;;20.40;42.00;;;;;;4829229;29;20483;-78
2021/01/13 11:33:33;;;;;;;3.25;1.52;;;20.40;42.00;;;;;;4862617;29;20497;-78
2021/01/13 11:35:58;;;;;;;5.38;1.50;;;20.40;42.00;;;;;;4883379;29;20060;-78
2021/01/13 11:38:33;;;;;;;6.22;1.60;;;20.40;42.00;;;;;;4866800;29;20413;-78
2021/01/13 11:41:52;;;;;;;4.68;1.65;;;20.40;41.90;;;;;;4881998;29;20152;-78
2021/01/13 11:44:52;;;;;;;3.25;1.60;;;20.40;41.90;;;;;;4847925;29;20141;-78
2021/01/13 11:47:34;;;;;;;3.78;1.50;;;20.40;41.80;;;;;;4818984;29;20401;-78
2021/01/13 11:50:12;;;;;;;6.50;1.52;;;20.50;41.80;;;;;;4850826;29;20417;-78
2021/01/13 11:52:41;;;;;;;3.55;1.80;;;20.40;41.70;;;;;;4865389;29;20064;-78
2021/01/13 11:55:08;;;;;;;4.28;1.60;;;20.50;41.70;;;;;;4867407;29;20429;-78
2021/01/13 11:57:47;;;;;;;4.15;1.52;;;20.50;41.60;;;;;;4864732;29;20050;-78
2021/01/13 12:00:31;;;;;;;5.18;1.73;;;20.50;41.60;;;;;;4847679;29;20455;-78
2021/01/13 12:03:04;;;;;;;2.72;1.40;;;20.50;41.60;;;;;;4847610;29;20064;-78
2021/01/13 12:05:31;;;;;;;7.18;1.90;;;20.50;41.60;;;;;;4847788;29;20053;-78
2021/01/13 12:08:12;;;;;;;5.18;1.63;;;20.50;41.60;;;;;;4834378;29;20053;-78
2021/01/13 12:10:50;;;;;;;4.93;1.80;;;20.40;41.40;;;;;;4862301;29;20065;-78
2021/01/13 12:13:25;;;;;;;6.05;2.30;;;20.50;41.60;;;;;;4866470;29;20057;-78
2021/01/13 12:16:05;;;;;;;5.97;1.88;;;20.40;41.50;;;;;;4864072;29;20089;-78
2021/01/13 12:18:47;;;;;;;4.57;1.65;;;20.40;41.50;;;;;;4847138;29;20065;-77
2021/01/13 12:21:14;;;;;;;5.35;1.30;;;20.40;41.50;;;;;;4862927;29;20148;-78
2021/01/13 12:23:53;;;;;;;4.00;1.70;;;20.40;41.40;;;;;;4862537;29;20144;-78
2021/01/13 12:26:29;;;;;;;5.07;1.63;;;20.40;41.30;;;;;;4847194;29;20541;-78
2021/01/13 12:28:56;;;;;;;4.20;1.40;;;20.40;41.40;;;;;;4831873;29;20076;-78
2021/01/13 12:31:26;;;;;;;4.10;1.35;;;20.40;41.30;;;;;;4847260;29;20076;-78
2021/01/13 12:33:58;;;;;;;2.65;1.30;;;20.40;41.20;;;;;;4862833;29;20387;-78
2021/01/13 12:36:38;;;;;;;3.13;1.40;;;20.40;41.20;;;;;;4866009;29;20055;-78
2021/01/13 12:39:10;;;;;;;4.63;1.63;;;20.40;41.30;;;;;;4846976;29;20068;-78
2021/01/13 12:41:37;;;;;;;6.82;1.85;;;20.40;41.30;;;;;;4847301;29;20057;-78
2021/01/13 12:44:12;;;;;;;5.10;1.70;;;20.40;41.30;;;;;;4861895;29;20151;-78
2021/01/13 12:46:49;;;;;;;7.00;1.67;;;20.30;41.20;;;;;;4861992;29;20049;-77
2021/01/13 12:49:15;;;;;;;4.70;1.60;;;20.40;41.20;;;;;;4846867;29;20057;-77
2021/01/13 12:51:41;;;;;;;3.97;1.45;;;20.30;41.10;;;;;;4862637;29;20516;-77
2021/01/13 12:54:09;;;;;;;3.50;1.48;;;20.40;41.10;;;;;;4879619;29;20061;-77
2021/01/13 12:56:35;;;;;;;4.80;1.60;;;20.40;41.10;;;;;;4880468;29;20069;-77
2021/01/13 12:59:03;;;;;;;3.88;1.67;;;20.30;41.00;;;;;;4865273;29;20110;-78
2021/01/13 13:01:39;;;;;;;6.22;1.50;;;20.30;41.00;;;;;;4849547;29;20099;-78
2021/01/13 13:04:05;;;;;;;4.95;1.65;;;20.30;41.00;;;;;;4846910;29;20494;-77
2021/01/13 13:06:33;;;;;;;4.63;1.40;;;20.30;40.90;;;;;;4863252;29;20049;-78
2021/01/13 13:09:00;;;;;;;3.15;1.67;;;20.30;40.90;;;;;;4863485;29;20061;-77
2021/01/13 13:11:27;;;;;;;6.18;2.00;;;20.30;40.90;;;;;;4846727;29;20058;-78
2021/01/13 13:13:54;;;;;;;5.63;1.52;;;20.30;40.90;;;;;;4863111;29;20144;-77
2021/01/13 13:16:19;;;;;;;5.68;1.85;;;20.30;40.90;;;;;;4846160;29;20096;-78
2021/01/13 13:18:46;;;;;;;5.18;1.58;;;20.30;40.90;;;;;;4846420;29;20085;-78
2021/01/13 13:21:14;;;;;;;3.97;1.40;;;20.30;40.80;;;;;;4876495;29;20060;-78
2021/01/13 13:23:40;;;;;;;2.92;1.45;;;20.30;40.80;;;;;;4861939;29;20061;-77
2021/01/13 13:26:06;;;;;;;3.80;1.75;;;20.30;40.80;;;;;;4846315;29;20110;-77
2021/01/13 13:28:35;;;;;;;6.50;2.20;;;20.30;40.70;;;;;;4863262;29;20085;-77
2021/01/13 13:31:03;;;;;;;4.97;2.00;;;20.30;40.70;;;;;;4846009;29;20065;-77